Lionshead Lake, New Jersey
Current Conditions -  °F | °C
As of 4:53 AM on Thursday 18 Dec 2014 (Local Time) from KCDW Reporting Station
Few Clouds Few Clouds  
Wind Chill: 30°   Ceiling: Unl
Heat Index: 37°   Visibility: 10mi
Dew Point: 23°   Wind: 10mph
Humidity: 57%   Direction: 310°NW
Pressure: 29.93"   Gusts: NA
Location:  40.9484°N, 74.2449°W
Report Text: KCDW 180953Z AUTO 31009KT 10SM FEW100 03/M05 A2993 RMK AO2 SLP140 T00281050 TSNO
Loading
Personal Weather Stations






























Interactive Weather Map New forecast layout! Learn more

10-Day Weather Forecast

Advertisements
Track Severe Weather on mobile